sensor_id;sensor_type;location;lat;lon;timestamp;temperature;humidity
7290;DHT22;3686;52.678;13.252;2022-08-19T00:01:13;22.70;99.90
7290;DHT22;3686;52.678;13.252;2022-08-19T00:03:38;22.70;99.90
7290;DHT22;3686;52.678;13.252;2022-08-19T00:06:04;22.60;99.90
7290;DHT22;3686;52.678;13.252;2022-08-19T00:08:30;22.60;99.90
7290;DHT22;3686;52.678;13.252;2022-08-19T00:10:56;22.60;99.90
7290;DHT22;3686;52.678;13.252;2022-08-19T00:13:23;22.60;99.90
7290;DHT22;3686;52.678;13.252;2022-08-19T00:15:48;22.70;99.90
7290;DHT22;3686;52.678;13.252;2022-08-19T00:18:14;22.60;99.90
7290;DHT22;3686;52.678;13.252;2022-08-19T00:20:39;22.60;99.90
7290;DHT22;3686;52.678;13.252;2022-08-19T00:23:06;22.60;99.90
7290;DHT22;3686;52.678;13.252;2022-08-19T00:25:32;22.60;99.90
7290;DHT22;3686;52.678;13.252;2022-08-19T00:27:59;22.60;99.90
7290;DHT22;3686;52.678;13.252;2022-08-19T00:30:25;22.60;99.90
7290;DHT22;3686;52.678;13.252;2022-08-19T00:32:53;22.50;99.90
7290;DHT22;3686;52.678;13.252;2022-08-19T00:35:20;22.50;99.90
7290;DHT22;3686;52.678;13.252;2022-08-19T00:37:47;22.60;99.90
7290;DHT22;3686;52.678;13.252;2022-08-19T00:40:14;22.50;99.90
7290;DHT22;3686;52.678;13.252;2022-08-19T00:42:40;22.60;99.90
7290;DHT22;3686;52.678;13.252;2022-08-19T00:45:17;22.50;99.90
7290;DHT22;3686;52.678;13.252;2022-08-19T00:47:44;22.50;99.90
7290;DHT22;3686;52.678;13.252;2022-08-19T00:50:13;22.50;99.90
7290;DHT22;3686;52.678;13.252;2022-08-19T00:52:43;22.50;99.90
7290;DHT22;3686;52.678;13.252;2022-08-19T00:55:14;22.50;99.90
7290;DHT22;3686;52.678;13.252;2022-08-19T00:57:44;22.50;99.90
7290;DHT22;3686;52.678;13.252;2022-08-19T01:00:15;22.50;99.90
7290;DHT22;3686;52.678;13.252;2022-08-19T01:02:42;22.50;99.90
7290;DHT22;3686;52.678;13.252;2022-08-19T01:05:10;22.50;99.90
7290;DHT22;3686;52.678;13.252;2022-08-19T01:07:39;22.40;99.90
7290;DHT22;3686;52.678;13.252;2022-08-19T01:10:08;22.50;99.90
7290;DHT22;3686;52.678;13.252;2022-08-19T01:12:34;22.40;99.90
7290;DHT22;3686;52.678;13.252;2022-08-19T01:15:00;22.40;99.90
7290;DHT22;3686;52.678;13.252;2022-08-19T01:17:26;22.40;99.90
7290;DHT22;3686;52.678;13.252;2022-08-19T01:19:52;22.40;99.90
7290;DHT22;3686;52.678;13.252;2022-08-19T01:22:27;22.40;99.90
7290;DHT22;3686;52.678;13.252;2022-08-19T01:24:53;22.30;99.90
7290;DHT22;3686;52.678;13.252;2022-08-19T01:27:19;22.30;99.90
7290;DHT22;3686;52.678;13.252;2022-08-19T01:29:45;22.30;99.90
7290;DHT22;3686;52.678;13.252;2022-08-19T01:32:15;22.40;99.90
7290;DHT22;3686;52.678;13.252;2022-08-19T01:34:42;22.40;99.90
7290;DHT22;3686;52.678;13.252;2022-08-19T01:37:13;22.40;99.90
7290;DHT22;3686;52.678;13.252;2022-08-19T01:39:40;22.30;99.90
7290;DHT22;3686;52.678;13.252;2022-08-19T01:42:08;22.30;99.90
7290;DHT22;3686;52.678;13.252;2022-08-19T01:44:37;22.30;99.90
7290;DHT22;3686;52.678;13.252;2022-08-19T01:47:03;22.40;99.90
7290;DHT22;3686;52.678;13.252;2022-08-19T01:49:29;22.40;99.90
7290;DHT22;3686;52.678;13.252;2022-08-19T01:51:55;22.40;99.90
7290;DHT22;3686;52.678;13.252;2022-08-19T01:54:22;22.40;99.90
7290;DHT22;3686;52.678;13.252;2022-08-19T01:56:49;22.30;99.90
7290;DHT22;3686;52.678;13.252;2022-08-19T01:59:19;22.30;99.90
7290;DHT22;3686;52.678;13.252;2022-08-19T02:01:46;22.30;99.90
7290;DHT22;3686;52.678;13.252;2022-08-19T02:04:11;22.30;99.90
7290;DHT22;3686;52.678;13.252;2022-08-19T02:06:37;22.30;99.90
7290;DHT22;3686;52.678;13.252;2022-08-19T02:09:04;22.30;99.90
7290;DHT22;3686;52.678;13.252;2022-08-19T02:11:33;22.30;99.90
7290;DHT22;3686;52.678;13.252;2022-08-19T02:17:22;22.20;99.90
7290;DHT22;3686;52.678;13.252;2022-08-19T02:19:47;22.20;99.90
7290;DHT22;3686;52.678;13.252;2022-08-19T02:22:14;22.10;99.90
7290;DHT22;3686;52.678;13.252;2022-08-19T02:24:40;22.10;99.90
7290;DHT22;3686;52.678;13.252;2022-08-19T02:27:06;22.10;99.90
7290;DHT22;3686;52.678;13.252;2022-08-19T02:29:31;22.00;99.90
7290;DHT22;3686;52.678;13.252;2022-08-19T02:31:57;22.00;99.90
7290;DHT22;3686;52.678;13.252;2022-08-19T02:34:23;22.00;99.90
7290;DHT22;3686;52.678;13.252;2022-08-19T02:36:51;22.00;99.90
7290;DHT22;3686;52.678;13.252;2022-08-19T02:39:17;22.00;99.90
7290;DHT22;3686;52.678;13.252;2022-08-19T02:41:43;22.00;1.00
7290;DHT22;3686;52.678;13.252;2022-08-19T02:44:08;22.00;99.90
7290;DHT22;3686;52.678;13.252;2022-08-19T02:46:34;21.90;1.00
7290;DHT22;3686;52.678;13.252;2022-08-19T02:49:04;21.90;99.90
7290;DHT22;3686;52.678;13.252;2022-08-19T02:51:41;21.80;99.90
7290;DHT22;3686;52.678;13.252;2022-08-19T02:54:08;21.80;99.90
7290;DHT22;3686;52.678;13.252;2022-08-19T02:56:36;21.80;99.90
7290;DHT22;3686;52.678;13.252;2022-08-19T02:59:02;21.80;99.90
7290;DHT22;3686;52.678;13.252;2022-08-19T03:01:30;21.70;99.90
7290;DHT22;3686;52.678;13.252;2022-08-19T03:03:58;21.80;99.90
7290;DHT22;3686;52.678;13.252;2022-08-19T03:06:25;21.70;99.90
7290;DHT22;3686;52.678;13.252;2022-08-19T03:08:54;21.70;99.90
7290;DHT22;3686;52.678;13.252;2022-08-19T03:18:29;21.70;99.90
7290;DHT22;3686;52.678;13.252;2022-08-19T03:24:29;21.70;99.90
7290;DHT22;3686;52.678;13.252;2022-08-19T03:26:56;21.70;99.90
7290;DHT22;3686;52.678;13.252;2022-08-19T03:29:23;21.70;99.90
7290;DHT22;3686;52.678;13.252;2022-08-19T03:31:49;21.70;1.00
7290;DHT22;3686;52.678;13.252;2022-08-19T03:34:28;21.70;1.00
7290;DHT22;3686;52.678;13.252;2022-08-19T03:36:55;21.70;1.00
7290;DHT22;3686;52.678;13.252;2022-08-19T03:39:22;21.70;1.00
7290;DHT22;3686;52.678;13.252;2022-08-19T03:41:50;21.70;1.00
7290;DHT22;3686;52.678;13.252;2022-08-19T03:44:19;21.70;1.00
7290;DHT22;3686;52.678;13.252;2022-08-19T03:46:54;21.80;1.00
7290;DHT22;3686;52.678;13.252;2022-08-19T03:49:22;21.70;1.00
7290;DHT22;3686;52.678;13.252;2022-08-19T03:51:49;21.70;1.00
7290;DHT22;3686;52.678;13.252;2022-08-19T03:54:19;21.70;1.00
7290;DHT22;3686;52.678;13.252;2022-08-19T03:56:47;21.70;1.00
7290;DHT22;3686;52.678;13.252;2022-08-19T03:59:17;21.70;1.00
7290;DHT22;3686;52.678;13.252;2022-08-19T04:01:43;21.70;1.00
7290;DHT22;3686;52.678;13.252;2022-08-19T04:04:09;21.60;1.00
7290;DHT22;3686;52.678;13.252;2022-08-19T04:06:37;21.60;1.00
7290;DHT22;3686;52.678;13.252;2022-08-19T04:09:06;21.60;1.00
7290;DHT22;3686;52.678;13.252;2022-08-19T04:11:40;21.60;1.00
7290;DHT22;3686;52.678;13.252;2022-08-19T04:14:08;21.60;1.00
7290;DHT22;3686;52.678;13.252;2022-08-19T04:16:35;21.60;1.00
7290;DHT22;3686;52.678;13.252;2022-08-19T04:19:03;21.60;1.00
7290;DHT22;3686;52.678;13.252;2022-08-19T04:21:29;21.60;1.00
7290;DHT22;3686;52.678;13.252;2022-08-19T04:23:55;21.60;1.00
7290;DHT22;3686;52.678;13.252;2022-08-19T04:26:24;21.50;1.00
7290;DHT22;3686;52.678;13.252;2022-08-19T04:28:51;21.60;1.00
7290;DHT22;3686;52.678;13.252;2022-08-19T04:31:23;21.50;1.00
7290;DHT22;3686;52.678;13.252;2022-08-19T04:33:56;21.60;1.00
7290;DHT22;3686;52.678;13.252;2022-08-19T04:36:30;21.50;1.00
7290;DHT22;3686;52.678;13.252;2022-08-19T04:38:58;21.50;1.00
7290;DHT22;3686;52.678;13.252;2022-08-19T04:41:25;21.50;1.00
7290;DHT22;3686;52.678;13.252;2022-08-19T04:44:11;21.50;1.00
7290;DHT22;3686;52.678;13.252;2022-08-19T04:46:37;21.50;1.00
7290;DHT22;3686;52.678;13.252;2022-08-19T04:49:04;21.40;1.00
7290;DHT22;3686;52.678;13.252;2022-08-19T04:51:33;21.40;1.00
7290;DHT22;3686;52.678;13.252;2022-08-19T04:54:00;21.40;1.00
7290;DHT22;3686;52.678;13.252;2022-08-19T04:56:26;21.40;1.00
7290;DHT22;3686;52.678;13.252;2022-08-19T04:58:53;21.40;1.00
7290;DHT22;3686;52.678;13.252;2022-08-19T05:01:23;21.40;1.00
7290;DHT22;3686;52.678;13.252;2022-08-19T05:03:49;21.50;1.00
7290;DHT22;3686;52.678;13.252;2022-08-19T05:06:17;21.40;1.00
7290;DHT22;3686;52.678;13.252;2022-08-19T05:08:44;21.50;1.00
7290;DHT22;3686;52.678;13.252;2022-08-19T05:11:10;21.50;1.00
7290;DHT22;3686;52.678;13.252;2022-08-19T05:13:37;21.50;1.00
7290;DHT22;3686;52.678;13.252;2022-08-19T05:16:03;21.50;1.00
7290;DHT22;3686;52.678;13.252;2022-08-19T05:18:29;21.50;1.00
7290;DHT22;3686;52.678;13.252;2022-08-19T05:21:15;21.50;1.00
7290;DHT22;3686;52.678;13.252;2022-08-19T05:23:59;21.50;1.00
7290;DHT22;3686;52.678;13.252;2022-08-19T05:26:25;21.50;1.00
7290;DHT22;3686;52.678;13.252;2022-08-19T05:28:55;21.50;1.00
7290;DHT22;3686;52.678;13.252;2022-08-19T05:31:21;21.50;1.00
7290;DHT22;3686;52.678;13.252;2022-08-19T05:33:47;21.50;1.00
7290;DHT22;3686;52.678;13.252;2022-08-19T05:36:13;21.60;1.00
7290;DHT22;3686;52.678;13.252;2022-08-19T05:38:39;21.60;1.00
7290;DHT22;3686;52.678;13.252;2022-08-19T05:41:13;21.60;1.00
7290;DHT22;3686;52.678;13.252;2022-08-19T05:43:39;21.70;1.00
7290;DHT22;3686;52.678;13.252;2022-08-19T05:46:06;21.70;1.00
7290;DHT22;3686;52.678;13.252;2022-08-19T05:48:33;21.80;1.00
7290;DHT22;3686;52.678;13.252;2022-08-19T05:51:04;21.90;1.00
7290;DHT22;3686;52.678;13.252;2022-08-19T05:53:30;21.90;1.00
7290;DHT22;3686;52.678;13.252;2022-08-19T05:55:56;22.00;1.00
7290;DHT22;3686;52.678;13.252;2022-08-19T05:58:21;22.00;1.00
7290;DHT22;3686;52.678;13.252;2022-08-19T06:00:47;22.10;1.00
7290;DHT22;3686;52.678;13.252;2022-08-19T06:03:12;22.10;1.00
7290;DHT22;3686;52.678;13.252;2022-08-19T06:05:38;22.20;1.00
7290;DHT22;3686;52.678;13.252;2022-08-19T06:08:04;22.30;1.00
7290;DHT22;3686;52.678;13.252;2022-08-19T06:10:30;22.30;1.00
7290;DHT22;3686;52.678;13.252;2022-08-19T06:12:56;22.40;1.00
7290;DHT22;3686;52.678;13.252;2022-08-19T06:15:22;22.40;1.00
7290;DHT22;3686;52.678;13.252;2022-08-19T06:17:51;22.50;1.00
7290;DHT22;3686;52.678;13.252;2022-08-19T06:20:16;22.50;1.00
7290;DHT22;3686;52.678;13.252;2022-08-19T06:22:45;22.60;1.00
7290;DHT22;3686;52.678;13.252;2022-08-19T06:25:12;22.60;1.00
7290;DHT22;3686;52.678;13.252;2022-08-19T06:27:40;22.60;1.00
7290;DHT22;3686;52.678;13.252;2022-08-19T06:30:06;22.60;1.00
7290;DHT22;3686;52.678;13.252;2022-08-19T06:32:32;22.60;99.90
7290;DHT22;3686;52.678;13.252;2022-08-19T06:34:58;22.60;1.00
7290;DHT22;3686;52.678;13.252;2022-08-19T06:37:24;22.70;99.90
7290;DHT22;3686;52.678;13.252;2022-08-19T06:39:50;22.70;99.90
7290;DHT22;3686;52.678;13.252;2022-08-19T06:42:16;22.70;99.90
7290;DHT22;3686;52.678;13.252;2022-08-19T06:44:46;22.60;99.90
7290;DHT22;3686;52.678;13.252;2022-08-19T06:47:14;22.70;99.90
7290;DHT22;3686;52.678;13.252;2022-08-19T06:49:41;22.70;99.90
7290;DHT22;3686;52.678;13.252;2022-08-19T06:52:07;22.70;1.00
7290;DHT22;3686;52.678;13.252;2022-08-19T06:54:33;22.70;1.00
7290;DHT22;3686;52.678;13.252;2022-08-19T06:56:59;22.80;99.90
7290;DHT22;3686;52.678;13.252;2022-08-19T06:59:28;22.90;99.90
7290;DHT22;3686;52.678;13.252;2022-08-19T07:01:57;22.90;99.90
7290;DHT22;3686;52.678;13.252;2022-08-19T07:04:27;22.90;99.90
7290;DHT22;3686;52.678;13.252;2022-08-19T07:07:14;22.90;99.90
7290;DHT22;3686;52.678;13.252;2022-08-19T07:09:42;22.90;99.90
7290;DHT22;3686;52.678;13.252;2022-08-19T07:12:09;22.90;99.90
7290;DHT22;3686;52.678;13.252;2022-08-19T07:14:37;22.90;99.90
7290;DHT22;3686;52.678;13.252;2022-08-19T07:17:06;22.90;99.90
7290;DHT22;3686;52.678;13.252;2022-08-19T07:19:32;22.90;99.90
7290;DHT22;3686;52.678;13.252;2022-08-19T07:22:00;22.90;99.90
7290;DHT22;3686;52.678;13.252;2022-08-19T07:24:26;23.00;99.90
7290;DHT22;3686;52.678;13.252;2022-08-19T07:26:56;23.00;99.90
7290;DHT22;3686;52.678;13.252;2022-08-19T07:29:26;23.00;99.90
7290;DHT22;3686;52.678;13.252;2022-08-19T07:31:53;23.00;99.90
7290;DHT22;3686;52.678;13.252;2022-08-19T07:34:22;23.00;99.90
7290;DHT22;3686;52.678;13.252;2022-08-19T07:36:48;23.10;99.90
7290;DHT22;3686;52.678;13.252;2022-08-19T07:39:18;23.10;99.90
7290;DHT22;3686;52.678;13.252;2022-08-19T07:41:45;23.10;99.90
7290;DHT22;3686;52.678;13.252;2022-08-19T07:44:11;23.00;99.90
7290;DHT22;3686;52.678;13.252;2022-08-19T07:46:40;23.10;99.90
7290;DHT22;3686;52.678;13.252;2022-08-19T07:49:07;23.10;99.90
7290;DHT22;3686;52.678;13.252;2022-08-19T07:51:34;23.10;99.90
7290;DHT22;3686;52.678;13.252;2022-08-19T07:54:00;23.10;99.90
7290;DHT22;3686;52.678;13.252;2022-08-19T07:56:26;23.10;99.90
7290;DHT22;3686;52.678;13.252;2022-08-19T07:58:52;23.10;99.90
7290;DHT22;3686;52.678;13.252;2022-08-19T08:01:21;23.20;99.90
7290;DHT22;3686;52.678;13.252;2022-08-19T08:03:49;23.20;99.90
7290;DHT22;3686;52.678;13.252;2022-08-19T08:06:33;23.20;99.90
7290;DHT22;3686;52.678;13.252;2022-08-19T08:09:24;23.20;99.90
7290;DHT22;3686;52.678;13.252;2022-08-19T08:12:01;23.20;99.90
7290;DHT22;3686;52.678;13.252;2022-08-19T08:14:35;23.20;99.90
7290;DHT22;3686;52.678;13.252;2022-08-19T08:17:04;23.30;99.90
7290;DHT22;3686;52.678;13.252;2022-08-19T08:19:30;23.20;99.90
7290;DHT22;3686;52.678;13.252;2022-08-19T08:21:58;23.20;99.90
7290;DHT22;3686;52.678;13.252;2022-08-19T08:24:26;23.20;99.90
7290;DHT22;3686;52.678;13.252;2022-08-19T08:26:53;23.20;99.90
7290;DHT22;3686;52.678;13.252;2022-08-19T08:29:18;23.20;99.90
7290;DHT22;3686;52.678;13.252;2022-08-19T08:31:45;23.20;99.90
7290;DHT22;3686;52.678;13.252;2022-08-19T08:34:13;23.20;99.90
7290;DHT22;3686;52.678;13.252;2022-08-19T08:36:41;23.10;99.90
7290;DHT22;3686;52.678;13.252;2022-08-19T08:39:09;23.10;99.90
7290;DHT22;3686;52.678;13.252;2022-08-19T08:44:06;23.10;99.90
7290;DHT22;3686;52.678;13.252;2022-08-19T08:46:38;23.10;99.90
7290;DHT22;3686;52.678;13.252;2022-08-19T08:51:59;23.10;99.90
7290;DHT22;3686;52.678;13.252;2022-08-19T08:54:33;23.10;99.90
7290;DHT22;3686;52.678;13.252;2022-08-19T08:56:59;23.10;99.90
7290;DHT22;3686;52.678;13.252;2022-08-19T08:59:35;23.10;99.90
7290;DHT22;3686;52.678;13.252;2022-08-19T09:02:02;23.00;99.90
7290;DHT22;3686;52.678;13.252;2022-08-19T09:04:28;23.00;99.90
7290;DHT22;3686;52.678;13.252;2022-08-19T09:07:39;23.00;99.90
7290;DHT22;3686;52.678;13.252;2022-08-19T09:10:38;23.00;99.90
7290;DHT22;3686;52.678;13.252;2022-08-19T09:15:58;23.00;99.90
7290;DHT22;3686;52.678;13.252;2022-08-19T09:18:29;23.00;99.90
7290;DHT22;3686;52.678;13.252;2022-08-19T09:21:03;23.00;99.90
7290;DHT22;3686;52.678;13.252;2022-08-19T09:23:29;23.00;99.90
7290;DHT22;3686;52.678;13.252;2022-08-19T09:25:54;23.00;99.90
7290;DHT22;3686;52.678;13.252;2022-08-19T09:28:20;23.10;99.90
7290;DHT22;3686;52.678;13.252;2022-08-19T09:30:46;23.10;99.90
7290;DHT22;3686;52.678;13.252;2022-08-19T09:33:11;23.10;99.90
7290;DHT22;3686;52.678;13.252;2022-08-19T09:35:37;23.00;99.90
7290;DHT22;3686;52.678;13.252;2022-08-19T09:38:03;23.10;99.90
7290;DHT22;3686;52.678;13.252;2022-08-19T09:40:29;23.10;99.90
7290;DHT22;3686;52.678;13.252;2022-08-19T09:42:55;23.20;99.90
7290;DHT22;3686;52.678;13.252;2022-08-19T09:45:22;23.30;99.90
7290;DHT22;3686;52.678;13.252;2022-08-19T09:47:50;23.30;99.90
7290;DHT22;3686;52.678;13.252;2022-08-19T09:50:16;23.40;99.90
7290;DHT22;3686;52.678;13.252;2022-08-19T09:52:43;23.60;99.90
7290;DHT22;3686;52.678;13.252;2022-08-19T09:55:10;23.70;99.90
7290;DHT22;3686;52.678;13.252;2022-08-19T09:57:36;23.70;99.90
7290;DHT22;3686;52.678;13.252;2022-08-19T10:00:07;23.80;99.90
7290;DHT22;3686;52.678;13.252;2022-08-19T10:02:34;23.80;99.90
7290;DHT22;3686;52.678;13.252;2022-08-19T10:05:00;23.80;99.90
7290;DHT22;3686;52.678;13.252;2022-08-19T10:07:45;23.90;99.90
7290;DHT22;3686;52.678;13.252;2022-08-19T10:10:11;23.90;99.90
7290;DHT22;3686;52.678;13.252;2022-08-19T10:12:37;23.90;99.90
7290;DHT22;3686;52.678;13.252;2022-08-19T10:15:05;23.90;99.90
7290;DHT22;3686;52.678;13.252;2022-08-19T10:17:31;24.00;99.90
7290;DHT22;3686;52.678;13.252;2022-08-19T10:19:59;24.00;99.90
7290;DHT22;3686;52.678;13.252;2022-08-19T10:22:25;24.00;99.90
7290;DHT22;3686;52.678;13.252;2022-08-19T10:24:51;24.10;99.90
7290;DHT22;3686;52.678;13.252;2022-08-19T10:27:17;24.20;99.90
7290;DHT22;3686;52.678;13.252;2022-08-19T10:29:43;24.20;99.90
7290;DHT22;3686;52.678;13.252;2022-08-19T10:32:09;24.20;99.90
7290;DHT22;3686;52.678;13.252;2022-08-19T10:34:37;24.20;99.90
7290;DHT22;3686;52.678;13.252;2022-08-19T10:37:04;24.20;99.90
7290;DHT22;3686;52.678;13.252;2022-08-19T10:39:35;24.20;99.90
7290;DHT22;3686;52.678;13.252;2022-08-19T10:42:05;24.30;99.90
7290;DHT22;3686;52.678;13.252;2022-08-19T10:44:32;24.40;99.90
7290;DHT22;3686;52.678;13.252;2022-08-19T10:47:00;24.40;99.90
7290;DHT22;3686;52.678;13.252;2022-08-19T10:49:27;24.30;99.90
7290;DHT22;3686;52.678;13.252;2022-08-19T10:51:52;24.30;99.90
7290;DHT22;3686;52.678;13.252;2022-08-19T10:54:37;24.30;99.90
7290;DHT22;3686;52.678;13.252;2022-08-19T10:57:21;24.30;99.90
7290;DHT22;3686;52.678;13.252;2022-08-19T10:59:49;24.20;99.90
7290;DHT22;3686;52.678;13.252;2022-08-19T11:02:15;24.30;99.90
7290;DHT22;3686;52.678;13.252;2022-08-19T11:04:41;24.20;99.90
7290;DHT22;3686;52.678;13.252;2022-08-19T11:07:07;24.20;99.90
7290;DHT22;3686;52.678;13.252;2022-08-19T11:09:38;24.20;99.90
7290;DHT22;3686;52.678;13.252;2022-08-19T11:12:05;24.20;99.90
7290;DHT22;3686;52.678;13.252;2022-08-19T11:14:31;24.20;99.90
7290;DHT22;3686;52.678;13.252;2022-08-19T11:16:58;24.20;99.90
7290;DHT22;3686;52.678;13.252;2022-08-19T11:19:24;24.10;99.90
7290;DHT22;3686;52.678;13.252;2022-08-19T11:21:51;24.10;99.90
7290;DHT22;3686;52.678;13.252;2022-08-19T11:24:24;24.10;99.90
7290;DHT22;3686;52.678;13.252;2022-08-19T11:26:51;24.00;99.90
7290;DHT22;3686;52.678;13.252;2022-08-19T11:29:19;24.00;99.90
7290;DHT22;3686;52.678;13.252;2022-08-19T11:31:47;23.90;99.90
7290;DHT22;3686;52.678;13.252;2022-08-19T11:34:17;23.90;99.90
7290;DHT22;3686;52.678;13.252;2022-08-19T11:36:45;23.90;99.90
7290;DHT22;3686;52.678;13.252;2022-08-19T11:39:13;23.90;99.90
7290;DHT22;3686;52.678;13.252;2022-08-19T11:41:39;23.90;99.90
7290;DHT22;3686;52.678;13.252;2022-08-19T11:44:05;23.90;99.90
7290;DHT22;3686;52.678;13.252;2022-08-19T11:46:33;23.80;99.90
7290;DHT22;3686;52.678;13.252;2022-08-19T11:49:01;23.80;99.90
7290;DHT22;3686;52.678;13.252;2022-08-19T11:51:29;23.90;99.90
7290;DHT22;3686;52.678;13.252;2022-08-19T11:53:56;23.80;99.90
7290;DHT22;3686;52.678;13.252;2022-08-19T11:56:24;23.80;99.90
7290;DHT22;3686;52.678;13.252;2022-08-19T11:58:51;23.80;99.90
7290;DHT22;3686;52.678;13.252;2022-08-19T12:01:19;23.80;99.90
7290;DHT22;3686;52.678;13.252;2022-08-19T12:03:47;23.80;99.90
7290;DHT22;3686;52.678;13.252;2022-08-19T12:06:29;23.80;99.90
7290;DHT22;3686;52.678;13.252;2022-08-19T12:08:56;23.80;99.90
7290;DHT22;3686;52.678;13.252;2022-08-19T12:11:22;23.80;99.90
7290;DHT22;3686;52.678;13.252;2022-08-19T12:13:48;23.80;99.90
7290;DHT22;3686;52.678;13.252;2022-08-19T12:16:20;23.80;99.90
7290;DHT22;3686;52.678;13.252;2022-08-19T12:18:46;23.80;99.90
7290;DHT22;3686;52.678;13.252;2022-08-19T12:21:14;23.70;99.90
7290;DHT22;3686;52.678;13.252;2022-08-19T12:23:43;23.70;99.90
7290;DHT22;3686;52.678;13.252;2022-08-19T12:26:11;23.70;99.90
7290;DHT22;3686;52.678;13.252;2022-08-19T12:28:37;23.60;99.90
7290;DHT22;3686;52.678;13.252;2022-08-19T12:31:05;23.70;99.90
7290;DHT22;3686;52.678;13.252;2022-08-19T12:33:31;23.60;99.90
7290;DHT22;3686;52.678;13.252;2022-08-19T12:36:02;23.60;99.90
7290;DHT22;3686;52.678;13.252;2022-08-19T12:38:29;23.60;99.90
7290;DHT22;3686;52.678;13.252;2022-08-19T12:40:55;23.60;99.90
7290;DHT22;3686;52.678;13.252;2022-08-19T12:43:20;23.60;99.90
7290;DHT22;3686;52.678;13.252;2022-08-19T12:45:47;23.70;99.90
7290;DHT22;3686;52.678;13.252;2022-08-19T12:48:13;23.70;99.90
7290;DHT22;3686;52.678;13.252;2022-08-19T12:50:40;23.70;99.90
7290;DHT22;3686;52.678;13.252;2022-08-19T12:53:06;23.70;99.90
7290;DHT22;3686;52.678;13.252;2022-08-19T12:55:32;23.70;99.90
7290;DHT22;3686;52.678;13.252;2022-08-19T12:57:57;23.80;99.90
7290;DHT22;3686;52.678;13.252;2022-08-19T13:00:24;23.80;99.90
7290;DHT22;3686;52.678;13.252;2022-08-19T13:02:51;23.80;99.90
7290;DHT22;3686;52.678;13.252;2022-08-19T13:05:20;23.80;99.90
7290;DHT22;3686;52.678;13.252;2022-08-19T13:07:48;23.80;99.90
7290;DHT22;3686;52.678;13.252;2022-08-19T13:10:16;23.80;99.90
7290;DHT22;3686;52.678;13.252;2022-08-19T13:12:43;23.90;99.90
7290;DHT22;3686;52.678;13.252;2022-08-19T13:15:10;23.90;99.90
7290;DHT22;3686;52.678;13.252;2022-08-19T13:17:37;24.00;99.90
7290;DHT22;3686;52.678;13.252;2022-08-19T13:20:03;24.20;99.90
7290;DHT22;3686;52.678;13.252;2022-08-19T13:22:31;24.30;99.90
7290;DHT22;3686;52.678;13.252;2022-08-19T13:24:57;24.60;99.90
7290;DHT22;3686;52.678;13.252;2022-08-19T13:27:22;25.00;99.90
7290;DHT22;3686;52.678;13.252;2022-08-19T13:29:48;25.50;99.90
7290;DHT22;3686;52.678;13.252;2022-08-19T13:32:32;25.90;99.90
7290;DHT22;3686;52.678;13.252;2022-08-19T13:35:17;26.40;99.90
7290;DHT22;3686;52.678;13.252;2022-08-19T13:37:43;26.90;99.90
7290;DHT22;3686;52.678;13.252;2022-08-19T13:40:21;27.20;99.90
7290;DHT22;3686;52.678;13.252;2022-08-19T13:42:51;27.50;99.90
7290;DHT22;3686;52.678;13.252;2022-08-19T13:45:24;27.70;99.90
7290;DHT22;3686;52.678;13.252;2022-08-19T13:47:51;27.80;99.90
7290;DHT22;3686;52.678;13.252;2022-08-19T13:50:20;27.60;99.90
7290;DHT22;3686;52.678;13.252;2022-08-19T13:52:46;27.20;99.90
7290;DHT22;3686;52.678;13.252;2022-08-19T13:55:13;27.10;99.90
7290;DHT22;3686;52.678;13.252;2022-08-19T13:57:40;26.90;99.90
7290;DHT22;3686;52.678;13.252;2022-08-19T14:00:10;27.00;99.90
7290;DHT22;3686;52.678;13.252;2022-08-19T14:02:37;27.20;99.90
7290;DHT22;3686;52.678;13.252;2022-08-19T14:05:05;27.20;99.90
7290;DHT22;3686;52.678;13.252;2022-08-19T14:07:31;27.20;99.90
7290;DHT22;3686;52.678;13.252;2022-08-19T14:09:57;27.00;99.90
7290;DHT22;3686;52.678;13.252;2022-08-19T14:12:23;26.70;99.90
7290;DHT22;3686;52.678;13.252;2022-08-19T14:14:49;26.50;99.90
7290;DHT22;3686;52.678;13.252;2022-08-19T14:17:15;26.20;99.90
7290;DHT22;3686;52.678;13.252;2022-08-19T14:19:41;26.00;99.90
7290;DHT22;3686;52.678;13.252;2022-08-19T14:22:07;25.80;99.90
7290;DHT22;3686;52.678;13.252;2022-08-19T14:24:33;25.70;99.90
7290;DHT22;3686;52.678;13.252;2022-08-19T14:26:59;25.60;99.90
7290;DHT22;3686;52.678;13.252;2022-08-19T14:29:25;25.50;99.90
7290;DHT22;3686;52.678;13.252;2022-08-19T14:31:52;25.40;99.90
7290;DHT22;3686;52.678;13.252;2022-08-19T14:34:17;25.40;99.90
7290;DHT22;3686;52.678;13.252;2022-08-19T14:36:43;25.40;99.90
7290;DHT22;3686;52.678;13.252;2022-08-19T14:39:10;25.30;99.90
7290;DHT22;3686;52.678;13.252;2022-08-19T14:41:40;25.20;99.90
7290;DHT22;3686;52.678;13.252;2022-08-19T14:44:06;25.10;99.90
7290;DHT22;3686;52.678;13.252;2022-08-19T14:46:31;25.10;99.90
7290;DHT22;3686;52.678;13.252;2022-08-19T14:48:57;25.00;99.90
7290;DHT22;3686;52.678;13.252;2022-08-19T14:51:24;24.90;99.90
7290;DHT22;3686;52.678;13.252;2022-08-19T14:53:53;24.80;99.90
7290;DHT22;3686;52.678;13.252;2022-08-19T14:56:22;24.80;99.90
7290;DHT22;3686;52.678;13.252;2022-08-19T14:58:48;24.70;99.90
7290;DHT22;3686;52.678;13.252;2022-08-19T15:01:18;24.70;99.90
7290;DHT22;3686;52.678;13.252;2022-08-19T15:03:46;24.70;99.90
7290;DHT22;3686;52.678;13.252;2022-08-19T15:06:12;24.70;99.90
7290;DHT22;3686;52.678;13.252;2022-08-19T15:08:39;24.70;99.90
7290;DHT22;3686;52.678;13.252;2022-08-19T15:11:11;24.70;99.90
7290;DHT22;3686;52.678;13.252;2022-08-19T15:13:38;24.60;99.90
7290;DHT22;3686;52.678;13.252;2022-08-19T15:16:05;24.50;99.90
7290;DHT22;3686;52.678;13.252;2022-08-19T15:18:30;24.50;99.90
7290;DHT22;3686;52.678;13.252;2022-08-19T15:20:58;24.40;99.90
7290;DHT22;3686;52.678;13.252;2022-08-19T15:23:25;24.30;99.90
7290;DHT22;3686;52.678;13.252;2022-08-19T15:25:51;24.20;99.90
7290;DHT22;3686;52.678;13.252;2022-08-19T15:28:24;24.10;99.90
7290;DHT22;3686;52.678;13.252;2022-08-19T15:30:51;24.00;99.90
7290;DHT22;3686;52.678;13.252;2022-08-19T15:33:17;24.00;99.90
7290;DHT22;3686;52.678;13.252;2022-08-19T15:35:45;23.90;99.90
7290;DHT22;3686;52.678;13.252;2022-08-19T15:38:11;23.90;99.90
7290;DHT22;3686;52.678;13.252;2022-08-19T15:40:38;23.90;99.90
7290;DHT22;3686;52.678;13.252;2022-08-19T15:43:04;23.80;99.90
7290;DHT22;3686;52.678;13.252;2022-08-19T15:45:30;23.80;99.90
7290;DHT22;3686;52.678;13.252;2022-08-19T15:48:00;23.80;99.90
7290;DHT22;3686;52.678;13.252;2022-08-19T15:50:26;23.80;99.90
7290;DHT22;3686;52.678;13.252;2022-08-19T15:52:58;23.80;99.90
7290;DHT22;3686;52.678;13.252;2022-08-19T15:55:30;23.80;99.90
7290;DHT22;3686;52.678;13.252;2022-08-19T15:58:04;23.70;99.90
7290;DHT22;3686;52.678;13.252;2022-08-19T16:00:49;23.70;99.90
7290;DHT22;3686;52.678;13.252;2022-08-19T16:03:33;23.70;99.90
7290;DHT22;3686;52.678;13.252;2022-08-19T16:06:17;23.70;99.90
7290;DHT22;3686;52.678;13.252;2022-08-19T16:08:53;23.70;99.90
7290;DHT22;3686;52.678;13.252;2022-08-19T16:11:22;23.60;99.90
7290;DHT22;3686;52.678;13.252;2022-08-19T16:13:49;23.60;99.90
7290;DHT22;3686;52.678;13.252;2022-08-19T16:16:25;23.60;99.90
7290;DHT22;3686;52.678;13.252;2022-08-19T16:18:56;23.60;99.90